Weather reports worldwide

Advertisment
Kew Gardens, United Kingdom (99095): temperature & dewpoint: 12.10.2018 18:00:00 - 18.10.2018 18:00:00 (BST)Kew Gardens, United Kingdom (99095): temperature -20cm & temperature -100cm: 12.10.2018 18:00:00 - 18.10.2018 18:00:00 (BST)Kew Gardens, United Kingdom (99095): wind speed & gusts: 12.10.2018 18:00:00 - 18.10.2018 18:00:00 (BST)Kew Gardens, United Kingdom (99095): wind direction: 12.10.2018 18:00:00 - 18.10.2018 18:00:00 (BST)Kew Gardens, United Kingdom (99095): precipitation: 12.10.2018 18:00:00 - 18.10.2018 18:00:00 (BST)
Date & Time tt [°C] td [°C] tt -20cm [°C] tt -100cm [°C] ff [km/h] ff [kn] fx [km/h] fx [kn] dd rr [mm]
18.10.2018 18:00:00 - - - - - - - - - -
18.10.2018 17:00:00 14,5 8,3 - - 8 4 - - NNE 0,0
18.10.2018 16:00:00 15,2 7,3 - - 9 5 - - NE 0,0
18.10.2018 15:00:00 14,8 7,7 - - 8 4 - - ENE 0,0
18.10.2018 14:00:00 15,6 9,9 - - 11 6 - - E 0,0
18.10.2018 13:00:00 13,9 9,4 - - 8 4 - - N 0,0
18.10.2018 12:00:00 14,8 8,9 - - 9 5 - - NE 0,0
18.10.2018 11:00:00 13,7 9,3 - - 8 4 - - NE 0,0
18.10.2018 10:00:00 12,0 9,4 14,5 15,4 9 5 - - NE 0,0
18.10.2018 09:00:00 11,0 9,5 - - 5 3 - - NNE 0,0
18.10.2018 08:00:00 10,2 9,1 - - 9 5 - - NE 0,0
18.10.2018 07:00:00 9,7 8,4 - - 4 2 - - N 0,0
18.10.2018 06:00:00 10,3 9,0 - - 5 3 - - N 0,0
18.10.2018 05:00:00 11,0 9,3 - - 4 2 - - NNE 0,0
18.10.2018 04:00:00 12,1 9,8 - - 4 2 - - N 0,0
18.10.2018 03:00:00 12,9 9,9 - - 4 2 - - NNE 0,0
18.10.2018 02:00:00 13,1 9,9 - - 5 3 - - N 0,0
18.10.2018 01:00:00 13,5 11,0 - - 4 2 - - NE 0,0
18.10.2018 00:00:00 13,7 11,2 - - 5 3 - - NNE 0,0
17.10.2018 23:00:00 13,7 11,8 - - 4 2 - - NNE 0,0
17.10.2018 22:00:00 13,0 12,2 - - 4 2 - - NNE 0,0
17.10.2018 21:00:00 12,4 10,8 - - 2 1 - - NNE 0,0
17.10.2018 20:00:00 14,7 11,9 - - 4 2 - - NE 0,0
17.10.2018 19:00:00 14,8 12,6 - - 4 2 - - ENE 0,0
17.10.2018 18:00:00 15,2 12,3 - - 4 2 - - N 0,0
17.10.2018 17:00:00 15,8 12,8 - - 2 1 - - SW 0,0
17.10.2018 16:00:00 15,6 13,6 - - 2 1 - - SSW 0,0
17.10.2018 15:00:00 15,3 13,1 - - 2 1 - - WSW 0,0
17.10.2018 14:00:00 14,7 13,3 - - 4 2 - - SSW 0,0
17.10.2018 13:00:00 14,0 13,3 - - 4 2 - - SSW 0,2
17.10.2018 12:00:00 13,7 13,2 - - 4 2 - - SW 0,0
17.10.2018 11:00:00 13,5 13,1 - - 2 1 - - WSW 0,8
17.10.2018 10:00:00 12,7 12,4 14,7 15,4 4 2 - - WSW 0,2
17.10.2018 09:00:00 11,9 11,7 - - 2 1 - - SSW 0,2
17.10.2018 08:00:00 11,3 11,0 - - 4 2 - - SSW 0,0
17.10.2018 07:00:00 10,9 10,8 - - 4 2 - - S 0,0
17.10.2018 06:00:00 10,0 9,8 - - 4 2 - - SSW 0,0
17.10.2018 05:00:00 9,7 9,1 - - 2 1 - - SSW 0,0
17.10.2018 04:00:00 10,0 9,3 - - 2 1 - - S 0,0
17.10.2018 03:00:00 11,3 9,8 - - 4 2 - - SSW 0,0
17.10.2018 02:00:00 12,7 11,0 - - 5 3 - - SSW 0,0
17.10.2018 01:00:00 12,2 10,4 - - 5 3 - - WSW 0,0
17.10.2018 00:00:00 12,6 10,6 - - 4 2 - - SSW 0,0
16.10.2018 23:00:00 12,8 10,4 - - 5 3 - - SSW 0,0
16.10.2018 22:00:00 14,9 10,6 - - 8 4 - - SW 0,0
16.10.2018 21:00:00 15,6 11,5 - - 9 5 - - WSW 0,0
16.10.2018 20:00:00 16,0 13,9 - - 8 4 - - SSW 0,0
16.10.2018 19:00:00 16,3 13,8 - - 8 4 - - S 0,0
16.10.2018 18:00:00 16,4 13,4 - - 8 4 - - SSW 0,0
16.10.2018 17:00:00 17,1 13,4 - - 8 4 - - SSW 0,0
16.10.2018 16:00:00 17,5 13,0 - - 9 5 - - SSW 0,0
16.10.2018 15:00:00 19,5 13,7 - - 9 5 - - SSW 0,0
16.10.2018 14:00:00 20,8 14,2 - - 9 5 - - SSW 0,0
16.10.2018 13:00:00 20,6 14,4 - - 9 5 - - SSW 0,0
16.10.2018 12:00:00 19,8 14,7 - - 8 4 - - S 0,0
16.10.2018 11:00:00 18,5 15,2 - - 5 3 - - SSE 0,0
16.10.2018 10:00:00 15,0 13,7 14,7 15,5 2 1 - - SSW 0,0
16.10.2018 09:00:00 14,5 13,9 - - 2 1 - - SW 0,0
16.10.2018 08:00:00 14,0 13,4 - - 2 1 - - SSE 0,0
16.10.2018 07:00:00 14,2 13,5 - - 2 1 - - SSW 0,0
16.10.2018 06:00:00 - - - - - - - - - 0,0
16.10.2018 05:00:00 14,4 14,0 - - 5 3 - - ESE 0,0
16.10.2018 04:00:00 14,6 14,2 - - 5 3 - - ESE 0,0
16.10.2018 03:00:00 14,6 14,2 - - 5 3 - - E 0,0
16.10.2018 02:00:00 14,5 14,2 - - 4 2 - - E 0,0
16.10.2018 01:00:00 14,4 14,1 - - 4 2 - - E 0,0
16.10.2018 00:00:00 14,3 13,9 - - 5 3 - - ESE 0,0
15.10.2018 23:00:00 14,2 13,8 - - 8 4 - - ESE 0,0
15.10.2018 22:00:00 13,8 13,3 - - 8 4 - - E 0,0
15.10.2018 21:00:00 13,7 13,1 - - 4 2 - - NE 0,0
15.10.2018 20:00:00 13,9 13,3 - - 4 2 - - NNE 0,0
15.10.2018 19:00:00 13,9 13,2 - - 5 3 - - NE 0,0
15.10.2018 18:00:00 13,7 13,1 - - 5 3 - - NNE 0,0
15.10.2018 17:00:00 13,8 13,2 - - 5 3 - - NE 0,0
15.10.2018 16:00:00 14,1 13,1 - - 5 3 - - NNE 0,0
15.10.2018 15:00:00 14,0 13,1 - - 5 3 - - ENE 0,0
15.10.2018 14:00:00 13,7 13,0 - - 4 2 - - NE 0,0
15.10.2018 13:00:00 13,3 12,6 - - 8 4 - - NNE 0,0
15.10.2018 12:00:00 13,2 12,5 - - 5 3 - - ENE 0,0
15.10.2018 11:00:00 13,1 12,1 - - 8 4 - - NNE 0,2
15.10.2018 10:00:00 12,7 11,9 14,2 15,5 4 2 - - NE 0,0
15.10.2018 09:00:00 12,3 11,8 - - 5 3 - - N 0,0
15.10.2018 08:00:00 11,9 11,6 - - 4 2 - - NNE 0,0
15.10.2018 07:00:00 11,8 11,5 - - 4 2 - - NNW 2,4
15.10.2018 06:00:00 11,7 11,2 - - 5 3 - - NNE 0,0
15.10.2018 05:00:00 11,6 10,9 - - 8 4 - - NE 0,0
15.10.2018 04:00:00 11,2 10,5 - - 9 5 - - NE 0,4
15.10.2018 03:00:00 11,0 10,4 - - 5 3 - - N 0,2
15.10.2018 02:00:00 10,7 10,3 - - 8 4 - - NE 5,0
15.10.2018 01:00:00 10,6 10,1 - - 5 3 - - ENE 8,2
15.10.2018 00:00:00 10,4 9,9 - - 9 5 - - NNE 10,6
14.10.2018 23:00:00 10,4 9,6 - - 9 5 - - NE 0,6
14.10.2018 22:00:00 10,3 9,5 - - 8 4 - - NNE 0,8
14.10.2018 21:00:00 10,2 9,3 - - 8 4 - - NNE 0,0
14.10.2018 20:00:00 10,2 9,2 - - 8 4 - - NNE 0,2
14.10.2018 19:00:00 10,4 9,6 - - 9 5 - - NNE 0,2
14.10.2018 18:00:00 10,6 9,5 - - 11 6 - - NNE 0,0
14.10.2018 17:00:00 11,1 10,1 - - 8 4 - - N 0,2
14.10.2018 16:00:00 11,4 10,2 - - 9 5 - - N 0,2
14.10.2018 15:00:00 12,2 11,0 - - 9 5 - - NNW 0,6
14.10.2018 14:00:00 12,8 11,6 - - 8 4 - - N 0,0
14.10.2018 13:00:00 13,0 12,3 - - 8 4 - - N 0,8
14.10.2018 12:00:00 13,2 12,2 - - 9 5 - - NW 2,8
14.10.2018 11:00:00 13,4 12,0 - - 8 4 - - N 0,0
14.10.2018 10:00:00 13,2 12,4 15,9 15,4 4 2 - - NNE 2,4
14.10.2018 09:00:00 13,5 12,1 - - 8 4 - - NNW 0,2
14.10.2018 08:00:00 13,8 12,8 - - 5 3 - - NNE 0,8
14.10.2018 07:00:00 14,2 12,6 - - 2 1 - - WNW 2,6
14.10.2018 06:00:00 15,8 11,1 - - 11 6 - - NW 0,0
14.10.2018 05:00:00 16,1 12,3 - - 5 3 - - W 0,0
14.10.2018 04:00:00 16,1 13,6 - - 4 2 - - SW 0,0
14.10.2018 03:00:00 16,7 13,7 - - 5 3 - - WSW 0,0
14.10.2018 02:00:00 18,6 15,5 - - 8 4 - - SW 0,0
14.10.2018 01:00:00 18,6 15,3 - - 9 5 - - SSW 0,0
14.10.2018 00:00:00 19,1 15,2 - - 8 4 - - SSW 0,0
13.10.2018 23:00:00 19,8 15,1 - - 11 6 - - SSW 0,0
13.10.2018 22:00:00 20,6 15,1 - - 15 8 - - SSW 0,0
13.10.2018 21:00:00 21,1 15,3 - - 13 7 - - S 0,0
13.10.2018 20:00:00 20,7 15,2 - - 15 8 - - S 0,0
13.10.2018 19:00:00 20,7 15,3 - - 15 8 - - S 0,0
13.10.2018 18:00:00 21,4 15,6 - - 18 10 - - S 0,0
13.10.2018 17:00:00 22,3 15,7 - - 18 10 - - S 0,0
13.10.2018 16:00:00 23,0 15,9 - - 18 10 - - S 0,0
13.10.2018 15:00:00 23,8 16,6 - - 16 9 - - S 0,0
13.10.2018 14:00:00 23,2 15,9 - - 18 10 46 25 S 0,0
13.10.2018 13:00:00 22,7 15,2 - - 16 9 - - S 0,0
13.10.2018 12:00:00 22,9 14,1 - - 16 9 - - S 0,0
13.10.2018 11:00:00 21,5 13,8 - - 15 8 - - S 0,0
13.10.2018 10:00:00 20,8 12,8 15,4 15,2 13 7 - - SSW 0,0
13.10.2018 09:00:00 20,2 13,0 - - 15 8 - - S 0,0
13.10.2018 08:00:00 19,3 13,4 - - 15 8 - - S 0,0
13.10.2018 07:00:00 19,0 13,6 - - 13 7 - - S 0,0
13.10.2018 06:00:00 19,3 13,7 - - 13 7 - - S 0,0
13.10.2018 05:00:00 19,6 13,9 - - 13 7 - - S 0,0
13.10.2018 04:00:00 19,6 13,9 - - 16 9 - - S 0,0
13.10.2018 03:00:00 20,1 13,5 - - 13 7 - - SSW 0,0
13.10.2018 02:00:00 20,2 13,8 - - 15 8 - - S 0,0
13.10.2018 01:00:00 20,5 13,7 - - 16 9 - - S 0,0
13.10.2018 00:00:00 20,5 13,3 - - 16 9 48 26 SSW 0,0
12.10.2018 23:00:00 20,8 12,5 - - 16 9 - - SSW 0,0
12.10.2018 22:00:00 20,8 12,2 - - 16 9 46 25 SSW 0,0
12.10.2018 21:00:00 20,8 12,1 - - 18 10 52 28 S 0,0
12.10.2018 20:00:00 21,0 12,5 - - 21 11 57 31 SSW 0,0
12.10.2018 19:00:00 20,3 13,4 - - 21 11 54 29 SSW 0,0
12.10.2018 18:00:00 20,0 13,5 - - 21 11 - - S 0,0

tt = temperature
td = dewpoint
tt -20cm = temperature -20cm
tt -100cm = temperature -100cm
ff = wind speed
fx = gusts
dd = wind direction
rr = precipitation

Next stations